Time;durP1;ratioP1;P1;durP2;ratioP2;P2;SDS_P1;SDS_P2;PMS_P1;PMS_P2;Temp;Humidity;BMP_temperature;BMP_pressure;BME280_temperature;BME280_humidity;BME280_pressure;Samples;Min_cycle;Max_cycle;Signal;HPM_P1;HPM_P2
2021/04/06 00:00:11;;;;;;;7.90;2.90;;;-0.30;99.90;;;;;;5066090;28;20514;-68
2021/04/06 00:02:41;;;;;;;5.83;2.40;;;-0.30;99.90;;;;;;5070618;28;20538;-68
2021/04/06 00:05:10;;;;;;;5.30;3.10;;;-0.30;99.90;;;;;;5071218;28;21402;-68
2021/04/06 00:07:37;;;;;;;5.90;2.60;;;-0.40;99.90;;;;;;5071160;28;20574;-68
2021/04/06 00:10:09;;;;;;;2.93;1.80;;;-0.40;99.90;;;;;;5052181;28;20528;-68
2021/04/06 00:12:37;;;;;;;4.30;1.97;;;-0.40;99.90;;;;;;5060683;28;20467;-71
2021/04/06 00:15:12;;;;;;;6.97;2.03;;;-0.40;99.90;;;;;;5071092;28;20570;-68
2021/04/06 00:17:43;;;;;;;5.40;1.93;;;-0.50;99.90;;;;;;5071022;28;20526;-69
2021/04/06 00:20:11;;;;;;;5.00;2.30;;;-0.50;99.90;;;;;;5070662;28;20459;-68
2021/04/06 00:22:39;;;;;;;5.33;2.27;;;-0.40;99.90;;;;;;5070408;28;20542;-69
2021/04/06 00:25:07;;;;;;;5.07;2.00;;;-0.50;99.90;;;;;;5071206;28;20478;-69
2021/04/06 00:27:38;;;;;;;4.87;2.00;;;-0.50;99.90;;;;;;5070572;28;20489;-68
2021/04/06 00:30:08;;;;;;;6.97;1.60;;;-0.60;99.90;;;;;;5070908;28;20448;-68
2021/04/06 00:32:36;;;;;;;4.37;1.87;;;-0.60;99.90;;;;;;5070216;28;20578;-69
2021/04/06 00:35:07;;;;;;;6.63;2.20;;;-0.70;99.90;;;;;;5070559;28;20530;-68
2021/04/06 00:37:42;;;;;;;7.20;2.23;;;-0.60;99.90;;;;;;5069503;28;20451;-68
2021/04/06 00:40:10;;;;;;;4.53;1.80;;;-0.60;99.90;;;;;;5060634;28;20542;-69
2021/04/06 00:42:38;;;;;;;3.37;1.73;;;-0.70;99.90;;;;;;5055822;28;20525;-69
2021/04/06 00:45:12;;;;;;;4.17;1.77;;;-0.70;99.90;;;;;;5052026;28;20551;-67
2021/04/06 00:47:39;;;;;;;3.37;1.80;;;-0.70;99.90;;;;;;5051460;28;21012;-68
2021/04/06 00:50:09;;;;;;;7.30;2.30;;;-0.70;99.90;;;;;;5051648;28;20448;-67
2021/04/06 00:52:40;;;;;;;3.63;1.93;;;-0.60;99.90;;;;;;5051625;28;20502;-67
2021/04/06 00:55:09;;;;;;;3.13;1.80;;;-0.60;99.90;;;;;;5051682;28;20527;-67
2021/04/06 00:57:42;;;;;;;5.10;2.17;;;-0.50;99.90;;;;;;5051735;28;20598;-67
2021/04/06 01:00:14;;;;;;;5.03;2.20;;;-0.50;99.90;;;;;;5051981;28;20479;-67
2021/04/06 01:02:43;;;;;;;3.77;1.50;;;-0.50;99.90;;;;;;5051100;28;20555;-67
2021/04/06 01:05:11;;;;;;;2.57;1.40;;;-0.50;99.90;;;;;;5051684;28;20527;-68
2021/04/06 01:07:38;;;;;;;4.17;2.40;;;-0.50;99.90;;;;;;5051579;28;20542;-68
2021/04/06 01:10:07;;;;;;;2.70;1.83;;;-0.50;99.90;;;;;;5063107;28;20444;-68
2021/04/06 01:12:34;;;;;;;3.10;2.07;;;-0.50;99.90;;;;;;5064513;28;20846;-68
2021/04/06 01:15:01;;;;;;;5.20;2.57;;;-0.40;99.90;;;;;;5065164;28;20479;-68
2021/04/06 01:17:30;;;;;;;4.00;2.33;;;-0.50;99.90;;;;;;5065145;28;20515;-68
2021/04/06 01:19:59;;;;;;;6.00;2.27;;;-0.50;99.90;;;;;;5064444;28;20447;-66
2021/04/06 01:22:28;;;;;;;5.00;2.57;;;-0.50;99.90;;;;;;5064308;28;20496;-68
2021/04/06 01:24:55;;;;;;;5.30;1.90;;;-0.50;99.90;;;;;;5052243;28;20448;-68
2021/04/06 01:27:21;;;;;;;3.83;1.80;;;-0.60;99.90;;;;;;5050944;28;20571;-68
2021/04/06 01:29:49;;;;;;;10.03;2.10;;;-0.60;99.90;;;;;;5050690;28;20456;-68
2021/04/06 01:32:17;;;;;;;5.23;2.13;;;-0.50;99.90;;;;;;5050657;28;20591;-68
2021/04/06 01:34:44;;;;;;;4.10;1.73;;;-0.50;99.90;;;;;;5050816;28;20483;-68
2021/04/06 01:37:10;;;;;;;5.40;2.20;;;-0.50;99.90;;;;;;5050694;28;20456;-68
2021/04/06 01:39:37;;;;;;;2.80;1.60;;;-0.50;99.90;;;;;;5050821;28;21080;-68
2021/04/06 01:42:08;;;;;;;3.53;2.00;;;-0.60;99.90;;;;;;5050450;28;20472;-68
2021/04/06 01:44:37;;;;;;;4.10;1.87;;;-0.50;99.90;;;;;;5050423;28;20448;-68
2021/04/06 01:47:04;;;;;;;4.10;1.90;;;-0.60;99.90;;;;;;5050649;28;20562;-65
2021/04/06 01:49:31;;;;;;;3.87;1.77;;;-0.60;99.90;;;;;;5050861;28;20452;-67
2021/04/06 01:51:58;;;;;;;4.50;1.77;;;-0.60;99.90;;;;;;5050543;28;20547;-68
2021/04/06 01:54:26;;;;;;;6.97;1.80;;;-0.70;99.90;;;;;;5050315;28;20882;-68
2021/04/06 01:56:55;;;;;;;7.93;2.43;;;-0.70;99.90;;;;;;5050346;28;21074;-67
2021/04/06 01:59:27;;;;;;;3.37;2.13;;;-0.70;99.90;;;;;;5050476;28;20448;-68
2021/04/06 02:01:56;;;;;;;2.80;1.60;;;-0.70;99.90;;;;;;5050471;28;20539;-68
2021/04/06 02:04:24;;;;;;;6.57;2.23;;;-0.70;99.90;;;;;;5050648;28;20440;-67
2021/04/06 02:06:51;;;;;;;5.30;2.10;;;-0.70;99.90;;;;;;5050253;28;20690;-67
2021/04/06 02:09:19;;;;;;;5.57;2.03;;;-0.70;99.90;;;;;;5050320;28;20502;-67
2021/04/06 02:11:46;;;;;;;4.33;2.20;;;-0.70;99.90;;;;;;5050040;28;21305;-67
2021/04/06 02:14:15;;;;;;;3.50;1.83;;;-0.60;99.90;;;;;;5049980;28;20492;-67
2021/04/06 02:16:50;;;;;;;4.67;2.00;;;-0.60;99.90;;;;;;5050446;28;20476;-67
2021/04/06 02:19:28;;;;;;;3.83;1.83;;;-0.70;99.90;;;;;;5050351;28;20530;-68
2021/04/06 02:21:56;;;;;;;5.43;2.30;;;-0.70;99.90;;;;;;5050149;28;21117;-68
2021/04/06 02:24:36;;;;;;;3.97;1.60;;;-0.70;99.90;;;;;;5050238;28;20522;-67
2021/04/06 02:27:07;;;;;;;2.83;1.90;;;-0.70;99.90;;;;;;5050377;28;20499;-68
2021/04/06 02:29:41;;;;;;;4.60;2.17;;;-0.60;99.90;;;;;;5050014;28;20539;-67
2021/04/06 02:32:10;;;;;;;3.90;2.30;;;-0.60;99.90;;;;;;5050062;28;20499;-66
2021/04/06 02:34:42;;;;;;;7.97;2.90;;;-0.70;99.90;;;;;;5050369;28;20912;-66
2021/04/06 02:37:21;;;;;;;4.60;2.20;;;-0.70;99.90;;;;;;5050468;28;20484;-66
2021/04/06 02:39:49;;;;;;;6.43;2.73;;;-0.60;99.90;;;;;;5049788;28;20531;-66
2021/04/06 02:42:34;;;;;;;4.10;2.50;;;-0.70;99.90;;;;;;5050194;28;20502;-66
2021/04/06 02:45:10;;;;;;;4.30;2.17;;;-0.60;99.90;;;;;;5050580;28;20523;-66
2021/04/06 02:47:41;;;;;;;3.40;2.20;;;-0.70;99.90;;;;;;5050411;28;20525;-66
2021/04/06 02:50:10;;;;;;;4.30;2.67;;;-0.70;99.90;;;;;;5050089;28;20454;-66
2021/04/06 02:52:37;;;;;;;3.93;2.43;;;-0.70;99.90;;;;;;5049799;28;20543;-67
2021/04/06 02:55:05;;;;;;;5.93;2.40;;;-0.70;99.90;;;;;;5049867;28;20582;-66
2021/04/06 02:57:31;;;;;;;7.57;2.77;;;-0.70;99.90;;;;;;5050189;28;21005;-67
2021/04/06 02:59:58;;;;;;;4.63;2.60;;;-0.70;99.90;;;;;;5052151;28;20534;-67
2021/04/06 03:02:24;;;;;;;2.80;1.97;;;-0.60;99.90;;;;;;5053586;28;20478;-66
2021/04/06 03:04:52;;;;;;;5.20;2.53;;;-0.50;99.90;;;;;;5053890;28;20869;-67
2021/04/06 03:07:20;;;;;;;4.57;2.53;;;-0.50;99.90;;;;;;5053566;28;21048;-67
2021/04/06 03:09:55;;;;;;;4.17;2.27;;;-0.40;99.90;;;;;;5053661;28;20471;-67
2021/04/06 03:12:22;;;;;;;5.33;2.53;;;-0.40;99.90;;;;;;5053622;28;20506;-67
2021/04/06 03:14:50;;;;;;;4.90;2.27;;;-0.30;99.90;;;;;;5053971;28;21051;-67
2021/04/06 03:17:17;;;;;;;5.10;2.80;;;-0.30;99.90;;;;;;5053850;28;20531;-67
2021/04/06 03:19:44;;;;;;;5.90;2.90;;;-0.20;99.90;;;;;;5053876;28;20445;-66
2021/04/06 03:22:15;;;;;;;4.43;2.27;;;-0.20;99.90;;;;;;5053999;28;20555;-67
2021/04/06 03:24:42;;;;;;;4.97;2.40;;;-0.20;99.90;;;;;;5053718;28;20948;-67
2021/04/06 03:27:09;;;;;;;3.30;2.90;;;-0.20;99.90;;;;;;5053880;28;20924;-67
2021/04/06 03:29:35;;;;;;;4.10;2.53;;;-0.20;99.90;;;;;;5053627;28;21008;-67
2021/04/06 03:32:03;;;;;;;8.70;2.90;;;-0.20;99.90;;;;;;5053629;28;20847;-67
2021/04/06 03:34:31;;;;;;;2.63;2.23;;;-0.20;99.90;;;;;;5053844;28;20542;-67
2021/04/06 03:36:58;;;;;;;4.27;2.40;;;-0.20;99.90;;;;;;5054012;28;20513;-67
2021/04/06 03:39:27;;;;;;;4.10;1.93;;;-0.20;99.90;;;;;;5054652;28;20462;-67
2021/04/06 03:41:53;;;;;;;4.10;2.10;;;-0.10;99.90;;;;;;5054799;28;20547;-67
2021/04/06 03:44:27;;;;;;;4.23;2.33;;;-0.20;99.90;;;;;;5054303;28;20545;-67
2021/04/06 03:46:57;;;;;;;6.17;2.50;;;-0.10;99.90;;;;;;5054580;28;20482;-67
2021/04/06 03:49:26;;;;;;;8.27;2.40;;;-0.10;99.90;;;;;;5060459;28;20472;-67
2021/04/06 03:51:56;;;;;;;3.40;2.50;;;-0.10;99.90;;;;;;5055994;28;20551;-67
2021/04/06 03:54:38;;;;;;;6.10;2.37;;;-0.10;99.90;;;;;;5052281;28;20523;-67
2021/04/06 03:57:31;;;;;;;3.50;2.20;;;-0.20;99.90;;;;;;5052812;28;20487;-67
2021/04/06 03:59:58;;;;;;;5.33;2.20;;;-0.20;99.90;;;;;;5052529;28;20537;-67
2021/04/06 04:02:25;;;;;;;5.03;1.60;;;-0.20;99.90;;;;;;5052364;28;20521;-67
2021/04/06 04:04:52;;;;;;;4.10;1.90;;;-0.30;99.90;;;;;;5052543;28;20954;-67
2021/04/06 04:07:19;;;;;;;3.30;1.83;;;-0.30;99.90;;;;;;5052253;28;20913;-67
2021/04/06 04:09:47;;;;;;;4.00;2.20;;;-0.20;99.90;;;;;;5052599;28;20539;-66
2021/04/06 04:12:13;;;;;;;3.63;2.20;;;-0.20;99.90;;;;;;5051026;28;20547;-67
2021/04/06 04:14:39;;;;;;;4.93;2.00;;;-0.10;99.90;;;;;;5052239;28;20548;-66
2021/04/06 04:17:07;;;;;;;5.43;2.20;;;0.00;99.90;;;;;;5052084;28;20487;-66
2021/04/06 04:19:33;;;;;;;4.90;2.43;;;0.00;99.90;;;;;;5052295;28;20466;-67
2021/04/06 04:22:00;;;;;;;5.50;2.10;;;0.00;99.90;;;;;;5052108;28;20495;-67
2021/04/06 04:24:26;;;;;;;5.93;2.60;;;0.10;99.90;;;;;;5051977;28;20967;-66
2021/04/06 04:26:53;;;;;;;5.93;2.50;;;0.10;99.90;;;;;;5052126;28;20583;-66
2021/04/06 04:29:19;;;;;;;4.83;2.13;;;0.10;99.90;;;;;;5051908;28;20527;-66
2021/04/06 04:31:48;;;;;;;3.33;2.23;;;0.10;99.90;;;;;;5052141;28;20496;-68
2021/04/06 04:34:14;;;;;;;5.50;2.40;;;0.10;99.90;;;;;;5051682;28;20535;-66
2021/04/06 04:36:41;;;;;;;2.63;2.20;;;0.10;99.90;;;;;;5051768;28;20440;-67
2021/04/06 04:39:08;;;;;;;4.03;2.30;;;0.20;99.90;;;;;;5051402;28;20531;-66
2021/04/06 04:41:34;;;;;;;5.40;2.23;;;0.10;99.90;;;;;;5052063;28;20991;-66
2021/04/06 04:44:02;;;;;;;4.60;2.80;;;0.10;99.90;;;;;;5051562;28;20527;-67
2021/04/06 04:46:29;;;;;;;4.80;2.50;;;0.10;99.90;;;;;;5051678;28;20531;-67
2021/04/06 04:48:56;;;;;;;5.00;2.63;;;0.10;99.90;;;;;;5051679;28;20510;-66
2021/04/06 04:51:23;;;;;;;7.33;2.50;;;0.20;99.90;;;;;;5050993;28;21065;-66
2021/04/06 04:53:49;;;;;;;4.40;3.20;;;0.20;99.90;;;;;;5050882;28;20614;-66
2021/04/06 04:56:16;;;;;;;5.70;2.87;;;0.20;99.90;;;;;;5051489;28;20523;-66
2021/04/06 04:58:42;;;;;;;4.10;2.43;;;0.20;99.90;;;;;;5051059;28;20875;-66
2021/04/06 05:01:11;;;;;;;6.70;3.00;;;0.20;99.90;;;;;;5050792;28;20559;-66
2021/04/06 05:03:37;;;;;;;4.73;2.50;;;0.20;99.90;;;;;;5050571;28;20538;-69
2021/04/06 05:06:04;;;;;;;7.10;2.67;;;0.20;99.90;;;;;;5050551;28;20443;-66
2021/04/06 05:08:30;;;;;;;3.73;2.33;;;0.20;99.90;;;;;;5050514;28;20527;-66
2021/04/06 05:10:57;;;;;;;5.83;2.87;;;0.30;99.90;;;;;;5050673;28;20525;-66
2021/04/06 05:13:25;;;;;;;6.57;2.60;;;0.20;99.90;;;;;;5050308;28;20822;-66
2021/04/06 05:15:51;;;;;;;11.87;3.00;;;0.30;99.90;;;;;;5050588;28;20446;-66
2021/04/06 05:18:19;;;;;;;8.07;2.80;;;0.30;99.90;;;;;;5050471;28;20535;-66
2021/04/06 05:20:45;;;;;;;3.63;2.37;;;0.30;99.90;;;;;;5050049;28;20931;-66
2021/04/06 05:23:11;;;;;;;7.33;3.20;;;0.40;99.90;;;;;;5049953;28;20969;-66
2021/04/06 05:25:38;;;;;;;4.80;2.63;;;0.40;99.90;;;;;;5050345;28;20448;-66
2021/04/06 05:28:05;;;;;;;5.20;3.53;;;0.40;99.90;;;;;;5050305;28;20538;-66
2021/04/06 05:30:31;;;;;;;5.93;3.00;;;0.40;99.90;;;;;;5050148;28;20486;-66
2021/04/06 05:32:57;;;;;;;5.67;2.60;;;0.50;99.90;;;;;;5050067;28;20479;-66
2021/04/06 05:35:25;;;;;;;3.63;2.10;;;0.50;99.90;;;;;;5050020;28;20488;-66
2021/04/06 05:37:51;;;;;;;5.43;3.17;;;0.50;99.90;;;;;;5049921;28;20547;-66
2021/04/06 05:40:17;;;;;;;6.53;3.07;;;0.60;99.90;;;;;;5050259;28;20471;-66
2021/04/06 05:42:44;;;;;;;6.83;3.07;;;0.70;99.90;;;;;;5049657;28;20506;-66
2021/04/06 05:45:11;;;;;;;4.63;3.30;;;0.70;99.90;;;;;;5050144;28;20470;-67
2021/04/06 05:47:40;;;;;;;8.63;4.50;;;0.70;99.90;;;;;;5050076;28;20476;-66
2021/04/06 05:50:08;;;;;;;4.27;2.80;;;0.70;99.90;;;;;;5050108;28;20451;-66
2021/04/06 05:52:36;;;;;;;5.80;2.43;;;0.80;99.90;;;;;;5049845;28;20472;-66
2021/04/06 05:55:05;;;;;;;9.60;3.27;;;0.90;99.90;;;;;;5050044;28;20444;-67
2021/04/06 05:57:32;;;;;;;4.93;2.90;;;0.80;99.90;;;;;;5050083;28;20531;-66
2021/04/06 05:59:58;;;;;;;7.70;3.50;;;0.80;99.90;;;;;;5049876;28;20875;-66
2021/04/06 06:02:25;;;;;;;5.77;2.83;;;0.90;99.90;;;;;;5049262;28;20460;-66
2021/04/06 06:04:52;;;;;;;6.23;2.63;;;0.90;99.90;;;;;;5049380;28;21033;-66
2021/04/06 06:07:18;;;;;;;4.27;2.90;;;1.00;99.90;;;;;;5049624;28;20570;-68
2021/04/06 06:09:46;;;;;;;4.73;3.33;;;1.00;99.90;;;;;;5049698;28;20537;-67
2021/04/06 06:12:17;;;;;;;4.67;2.87;;;1.00;99.90;;;;;;5049626;28;20490;-67
2021/04/06 06:14:44;;;;;;;7.77;3.10;;;1.00;99.90;;;;;;5049476;28;20540;-67
2021/04/06 06:17:16;;;;;;;5.10;3.23;;;1.10;99.90;;;;;;5049474;28;20939;-67
2021/04/06 06:19:44;;;;;;;6.90;3.40;;;1.20;99.90;;;;;;5049708;28;20440;-67
2021/04/06 06:22:13;;;;;;;6.50;3.00;;;1.30;99.90;;;;;;5049652;28;20551;-67
2021/04/06 06:24:43;;;;;;;8.53;3.23;;;1.30;99.90;;;;;;5049374;28;20552;-67
2021/04/06 06:27:35;;;;;;;6.10;3.40;;;1.40;99.90;;;;;;5049500;28;20511;-67
2021/04/06 06:30:27;;;;;;;6.37;3.00;;;1.40;99.90;;;;;;5049425;28;20535;-67
2021/04/06 06:33:13;;;;;;;8.43;2.83;;;1.50;99.90;;;;;;5049200;28;20589;-67
2021/04/06 06:35:40;;;;;;;4.33;2.53;;;1.50;99.90;;;;;;5052411;28;20435;-67
2021/04/06 06:38:20;;;;;;;8.03;2.87;;;1.60;99.90;;;;;;5053569;28;20902;-67
2021/04/06 06:40:49;;;;;;;4.47;2.80;;;1.70;99.90;;;;;;5053475;28;20841;-66
2021/04/06 06:43:18;;;;;;;9.77;2.60;;;1.70;99.90;;;;;;5053225;28;20531;-67
2021/04/06 06:45:46;;;;;;;7.93;2.90;;;1.80;99.90;;;;;;5053427;28;20539;-67
2021/04/06 06:48:26;;;;;;;6.40;2.87;;;1.90;99.90;;;;;;5052999;28;20507;-67
2021/04/06 06:50:53;;;;;;;6.77;2.60;;;1.90;99.90;;;;;;5052991;28;20498;-67
2021/04/06 06:53:34;;;;;;;8.00;3.40;;;1.90;99.90;;;;;;5053015;28;20454;-67
2021/04/06 06:56:00;;;;;;;5.03;2.30;;;1.80;99.90;;;;;;5053252;28;20897;-67
2021/04/06 06:58:31;;;;;;;4.73;2.60;;;1.80;99.90;;;;;;5053187;28;20532;-67
2021/04/06 07:00:58;;;;;;;4.90;2.47;;;1.80;99.90;;;;;;5052888;28;21000;-67
2021/04/06 07:03:24;;;;;;;4.47;2.60;;;1.90;99.90;;;;;;5052850;28;20531;-67
2021/04/06 07:05:51;;;;;;;5.80;3.10;;;1.90;99.90;;;;;;5053051;28;20455;-67
2021/04/06 07:08:29;;;;;;;10.60;3.00;;;2.00;99.90;;;;;;5052980;28;20476;-67
2021/04/06 07:10:56;;;;;;;6.30;2.90;;;2.00;99.90;;;;;;5052994;28;20905;-67
2021/04/06 07:13:28;;;;;;;4.33;2.80;;;2.00;99.90;;;;;;5052792;28;20530;-67
2021/04/06 07:15:56;;;;;;;8.67;2.70;;;2.10;99.90;;;;;;5053604;28;20448;-67
2021/04/06 07:18:26;;;;;;;5.63;2.43;;;2.10;99.90;;;;;;5053203;28;20443;-68
2021/04/06 07:20:56;;;;;;;6.70;3.07;;;2.10;99.90;;;;;;5053028;28;21000;-67
2021/04/06 07:23:31;;;;;;;6.40;2.70;;;2.10;99.90;;;;;;5052729;28;20530;-68
2021/04/06 07:25:58;;;;;;;8.53;2.67;;;2.00;99.90;;;;;;5052863;28;20480;-67
2021/04/06 07:28:25;;;;;;;7.17;3.20;;;2.00;99.90;;;;;;5052941;28;20490;-67
2021/04/06 07:30:53;;;;;;;7.33;2.60;;;1.90;99.90;;;;;;5052669;28;20521;-67
2021/04/06 07:33:20;;;;;;;5.80;2.83;;;2.00;99.90;;;;;;5052348;28;20440;-67
2021/04/06 07:35:48;;;;;;;5.20;2.83;;;2.20;99.90;;;;;;5052916;28;20595;-67
2021/04/06 07:38:15;;;;;;;9.17;3.20;;;2.30;99.90;;;;;;5052535;28;20538;-67
2021/04/06 07:40:42;;;;;;;8.57;3.20;;;2.40;99.90;;;;;;5052602;28;20543;-67
2021/04/06 07:43:09;;;;;;;5.73;3.00;;;2.50;99.90;;;;;;5052357;28;20886;-67
2021/04/06 07:45:44;;;;;;;6.67;3.83;;;2.50;99.90;;;;;;5052322;28;20440;-67
2021/04/06 07:48:30;;;;;;;6.10;2.60;;;2.50;99.90;;;;;;5052284;28;20578;-67
2021/04/06 07:51:12;;;;;;;5.00;2.70;;;2.60;99.90;;;;;;5052190;28;20551;-67
2021/04/06 07:53:57;;;;;;;3.60;2.47;;;2.60;99.90;;;;;;5052195;28;20527;-69
2021/04/06 07:56:49;;;;;;;5.23;2.70;;;2.60;99.90;;;;;;5052525;28;20448;-67
2021/04/06 07:59:55;;;;;;;6.50;2.43;;;2.80;99.90;;;;;;5051944;28;20458;-68
2021/04/06 08:02:27;;;;;;;11.50;3.97;;;2.80;99.90;;;;;;5045150;28;21006;-68
2021/04/06 08:04:55;;;;;;;7.07;3.00;;;3.10;99.90;;;;;;5052001;28;20468;-68
2021/04/06 08:07:24;;;;;;;7.70;2.73;;;3.20;99.90;;;;;;5052141;28;20480;-68
2021/04/06 08:09:51;;;;;;;6.40;2.40;;;3.10;99.90;;;;;;5051798;28;20535;-68
2021/04/06 08:12:19;;;;;;;6.37;2.90;;;3.00;99.90;;;;;;5052282;28;20563;-67
2021/04/06 08:14:48;;;;;;;3.73;2.60;;;3.00;99.90;;;;;;5051643;28;20447;-70
2021/04/06 08:17:43;;;;;;;9.83;3.57;;;3.00;99.90;;;;;;5049487;28;20789;-67
2021/04/06 08:20:36;;;;;;;12.63;3.50;;;3.00;99.90;;;;;;5051922;28;20444;-69
2021/04/06 08:23:05;;;;;;;5.13;3.10;;;3.10;99.90;;;;;;5051586;28;20480;-71
2021/04/06 08:25:54;;;;;;;8.27;3.00;;;3.20;99.90;;;;;;5051514;28;20532;-68
2021/04/06 08:28:38;;;;;;;3.83;2.67;;;3.60;99.90;;;;;;5047426;28;20550;-70
2021/04/06 08:31:20;;;;;;;6.33;3.07;;;3.70;99.90;;;;;;5052938;28;20460;-68
2021/04/06 08:33:47;;;;;;;7.60;3.33;;;3.70;99.90;;;;;;5052270;28;20459;-69
2021/04/06 08:36:22;;;;;;;7.63;4.00;;;3.40;99.90;;;;;;5052751;28;20479;-68
2021/04/06 08:38:49;;;;;;;8.10;3.33;;;3.50;99.90;;;;;;5051828;28;20523;-70
2021/04/06 08:41:38;;;;;;;6.47;3.87;;;3.40;99.90;;;;;;5051700;28;20517;-69
2021/04/06 08:44:09;;;;;;;11.07;3.10;;;3.50;99.90;;;;;;5051747;28;20829;-69
2021/04/06 08:46:46;;;;;;;4.93;2.40;;;3.50;99.90;;;;;;5051557;28;20954;-69
2021/04/06 08:49:15;;;;;;;6.10;2.70;;;3.50;99.90;;;;;;5050946;28;20491;-71
2021/04/06 08:51:43;;;;;;;4.60;2.67;;;3.30;99.90;;;;;;5051409;28;20543;-70
2021/04/06 08:54:13;;;;;;;6.23;3.10;;;3.20;99.90;;;;;;5045069;28;20458;-70
2021/04/06 08:56:42;;;;;;;4.93;2.70;;;3.20;99.90;;;;;;5041022;28;20509;-70
2021/04/06 08:59:17;;;;;;;8.70;3.37;;;3.20;99.90;;;;;;5048697;28;20501;-69
2021/04/06 09:01:47;;;;;;;5.33;2.23;;;3.30;99.90;;;;;;5050526;28;20459;-69
2021/04/06 09:04:15;;;;;;;3.90;2.70;;;3.50;99.90;;;;;;5040654;28;20507;-69
2021/04/06 09:06:42;;;;;;;7.90;3.00;;;3.60;99.90;;;;;;5031063;28;20542;-69
2021/04/06 09:09:10;;;;;;;4.47;2.50;;;3.60;99.90;;;;;;5032749;28;20528;-69
2021/04/06 09:11:38;;;;;;;7.60;3.50;;;3.80;99.90;;;;;;5049634;28;20467;-69
2021/04/06 09:14:05;;;;;;;6.00;2.33;;;4.10;99.90;;;;;;5050035;28;20718;-69
2021/04/06 09:16:33;;;;;;;7.43;2.90;;;4.30;99.90;;;;;;5030516;28;20462;-68
2021/04/06 09:19:01;;;;;;;9.67;2.90;;;4.10;99.90;;;;;;5030654;28;20951;-69
2021/04/06 09:21:30;;;;;;;4.37;2.47;;;3.90;99.90;;;;;;5044086;28;21006;-69
2021/04/06 09:23:59;;;;;;;12.80;3.50;;;3.80;99.90;;;;;;5043192;28;20495;-68
2021/04/06 09:26:28;;;;;;;7.77;2.40;;;3.80;99.90;;;;;;5041511;28;20465;-69
2021/04/06 09:29:03;;;;;;;5.83;3.10;;;3.90;99.90;;;;;;5035156;28;20560;-69
2021/04/06 09:31:31;;;;;;;4.30;2.87;;;4.10;99.90;;;;;;5035605;28;20492;-68
2021/04/06 09:34:10;;;;;;;6.13;2.13;;;4.40;99.90;;;;;;5038915;28;20437;-69
2021/04/06 09:36:37;;;;;;;10.53;3.40;;;4.80;99.90;;;;;;5038638;28;20550;-69
2021/04/06 09:39:05;;;;;;;5.97;2.50;;;5.00;99.90;;;;;;5049207;28;20439;-69
2021/04/06 09:41:35;;;;;;;5.13;2.43;;;4.70;99.90;;;;;;5050215;28;20472;-69
2021/04/06 09:44:02;;;;;;;8.93;2.80;;;4.40;99.90;;;;;;5039295;28;20499;-69
2021/04/06 09:46:37;;;;;;;7.70;2.10;;;4.30;99.90;;;;;;5050059;28;20435;-69
2021/04/06 09:49:04;;;;;;;4.60;2.37;;;4.20;99.90;;;;;;5046598;28;20570;-68
2021/04/06 09:51:31;;;;;;;3.80;2.03;;;4.10;99.90;;;;;;5046390;28;20496;-68
2021/04/06 09:53:59;;;;;;;3.80;2.10;;;4.20;99.90;;;;;;5047805;28;20440;-68
2021/04/06 09:56:26;;;;;;;6.03;2.10;;;4.20;99.90;;;;;;5047211;28;20539;-68
2021/04/06 09:58:53;;;;;;;4.40;2.10;;;4.20;99.90;;;;;;5044961;28;20819;-69
2021/04/06 10:01:22;;;;;;;3.60;2.50;;;4.30;99.90;;;;;;5041718;28;20601;-69
2021/04/06 10:03:51;;;;;;;5.47;2.33;;;4.30;99.90;;;;;;5044342;28;20440;-69
2021/04/06 10:06:17;;;;;;;5.73;2.60;;;4.40;99.90;;;;;;5045791;28;20514;-69
2021/04/06 10:08:44;;;;;;;4.47;2.17;;;4.00;99.90;;;;;;5047181;28;20519;-69
2021/04/06 10:11:10;;;;;;;4.93;2.50;;;3.90;99.90;;;;;;5047618;28;20693;-69
2021/04/06 10:13:38;;;;;;;4.00;1.90;;;4.10;99.90;;;;;;5046437;28;20521;-69
2021/04/06 10:16:08;;;;;;;4.97;2.63;;;4.20;99.90;;;;;;5049007;28;20779;-69
2021/04/06 10:18:43;;;;;;;6.40;2.80;;;3.90;99.90;;;;;;5046942;28;20440;-69
2021/04/06 10:21:22;;;;;;;5.70;2.70;;;3.80;99.90;;;;;;5048958;28;20460;-69
2021/04/06 10:23:48;;;;;;;6.97;2.50;;;4.00;99.90;;;;;;5029291;28;20527;-69
2021/04/06 10:26:23;;;;;;;5.23;2.50;;;4.60;99.90;;;;;;5029567;28;20535;-69
2021/04/06 10:29:01;;;;;;;6.50;2.90;;;5.20;99.90;;;;;;5035084;28;20501;-69
2021/04/06 10:31:44;;;;;;;5.10;2.23;;;5.60;99.90;;;;;;5044372;28;20552;-69
2021/04/06 10:34:10;;;;;;;4.90;2.20;;;6.50;99.90;;;;;;5048588;28;20535;-69
2021/04/06 10:36:37;;;;;;;4.90;2.23;;;6.40;99.90;;;;;;5044374;28;20536;-69
2021/04/06 10:39:05;;;;;;;6.60;2.60;;;6.80;99.90;;;;;;5047797;28;20440;-68
2021/04/06 10:41:34;;;;;;;4.33;2.00;;;7.20;99.90;;;;;;5045407;28;20493;-69
2021/04/06 10:44:03;;;;;;;3.90;1.87;;;6.80;99.90;;;;;;5048325;28;20450;-70
2021/04/06 10:46:31;;;;;;;7.30;2.87;;;6.20;99.90;;;;;;5048897;28;20452;-69
2021/04/06 10:49:02;;;;;;;3.03;1.83;;;6.00;99.90;;;;;;5048425;28;20525;-68
2021/04/06 10:51:30;;;;;;;4.50;2.57;;;5.80;99.90;;;;;;5047365;28;20521;-68
2021/04/06 10:53:59;;;;;;;5.90;1.60;;;5.70;99.90;;;;;;5043851;28;20480;-68
2021/04/06 10:56:28;;;;;;;5.57;2.73;;;5.80;99.90;;;;;;5047661;28;20455;-69
2021/04/06 10:58:57;;;;;;;4.43;2.20;;;6.30;99.90;;;;;;5047904;28;21001;-69
2021/04/06 11:01:25;;;;;;;3.97;1.90;;;6.20;99.60;;;;;;5047284;28;20534;-69
2021/04/06 11:03:56;;;;;;;5.10;2.27;;;6.20;99.70;;;;;;5047150;28;20464;-69
2021/04/06 11:06:28;;;;;;;8.87;2.47;;;6.90;98.20;;;;;;5039419;28;20453;-70
2021/04/06 11:08:56;;;;;;;2.80;1.63;;;7.40;98.70;;;;;;5047225;28;20475;-69
2021/04/06 11:11:28;;;;;;;3.67;1.70;;;7.40;95.80;;;;;;5043784;28;20492;-69
2021/04/06 11:13:57;;;;;;;4.70;1.97;;;7.40;97.70;;;;;;5037422;28;20533;-68
2021/04/06 11:16:24;;;;;;;2.37;1.40;;;7.00;96.00;;;;;;5049153;28;20938;-68
2021/04/06 11:19:06;;;;;;;4.57;1.80;;;6.50;96.50;;;;;;5049295;28;20530;-68
2021/04/06 11:21:34;;;;;;;3.57;1.93;;;6.20;96.20;;;;;;5048596;28;20562;-69
2021/04/06 11:24:01;;;;;;;5.80;2.10;;;6.00;96.30;;;;;;5051522;28;20448;-68
2021/04/06 11:26:27;;;;;;;8.87;2.70;;;6.10;97.20;;;;;;5051799;28;20467;-70
2021/04/06 11:28:54;;;;;;;4.90;2.10;;;6.10;95.80;;;;;;5051409;28;20566;-68
2021/04/06 11:31:21;;;;;;;6.90;2.10;;;6.10;98.00;;;;;;5043242;28;20546;-69
2021/04/06 11:33:47;;;;;;;4.53;2.10;;;6.30;96.70;;;;;;5048868;28;20491;-68
2021/04/06 11:36:15;;;;;;;4.57;2.40;;;6.30;96.60;;;;;;5050541;28;20535;-68
2021/04/06 11:38:41;;;;;;;3.43;2.00;;;6.40;96.70;;;;;;5052195;28;20524;-68
2021/04/06 11:41:08;;;;;;;3.20;2.27;;;6.50;95.50;;;;;;5052252;28;21078;-69
2021/04/06 11:43:35;;;;;;;4.00;1.70;;;6.70;95.10;;;;;;5052374;28;20891;-68
2021/04/06 11:46:02;;;;;;;4.77;2.57;;;6.70;95.40;;;;;;5044973;28;21017;-68
2021/04/06 11:48:28;;;;;;;7.43;2.17;;;6.80;95.40;;;;;;5041169;28;20574;-69
2021/04/06 11:50:55;;;;;;;3.30;1.70;;;7.40;95.30;;;;;;5048284;28;20547;-69
2021/04/06 11:53:22;;;;;;;3.43;1.93;;;7.20;94.20;;;;;;5046521;28;20541;-73
2021/04/06 11:55:48;;;;;;;3.23;1.70;;;7.20;94.80;;;;;;5049879;28;20586;-69
2021/04/06 11:58:15;;;;;;;4.50;2.20;;;7.80;96.10;;;;;;5049858;28;20483;-68
2021/04/06 12:00:41;;;;;;;3.43;1.73;;;7.90;92.90;;;;;;5047463;28;20536;-69
2021/04/06 12:03:08;;;;;;;5.57;2.00;;;6.90;93.60;;;;;;5041203;28;20479;-69
2021/04/06 12:05:34;;;;;;;4.57;2.03;;;6.20;94.00;;;;;;5041008;28;20542;-69
2021/04/06 12:08:01;;;;;;;5.10;2.10;;;6.60;94.70;;;;;;5043523;28;20523;-69
2021/04/06 12:10:30;;;;;;;3.60;2.10;;;7.00;93.70;;;;;;5046859;28;20528;-69
2021/04/06 12:12:56;;;;;;;7.17;2.60;;;7.40;92.90;;;;;;5052737;28;20453;-69
2021/04/06 12:15:22;;;;;;;3.90;2.10;;;7.50;93.50;;;;;;5054222;28;20509;-69
2021/04/06 12:17:50;;;;;;;3.07;2.00;;;7.90;93.70;;;;;;5043798;28;20475;-70
2021/04/06 12:20:17;;;;;;;5.00;1.97;;;8.40;91.80;;;;;;5046684;28;20456;-70
2021/04/06 12:22:43;;;;;;;5.50;1.80;;;8.70;89.40;;;;;;5052888;28;20531;-70
2021/04/06 12:25:11;;;;;;;3.40;1.87;;;8.70;86.30;;;;;;5050700;28;20471;-72
2021/04/06 12:27:38;;;;;;;3.30;1.63;;;9.00;88.20;;;;;;5050963;28;20928;-72
2021/04/06 12:30:06;;;;;;;3.80;1.80;;;9.10;85.30;;;;;;5050057;28;20456;-70
2021/04/06 12:32:33;;;;;;;4.83;2.20;;;10.20;84.50;;;;;;5042606;28;20547;-69
2021/04/06 12:34:59;;;;;;;5.37;2.30;;;10.40;79.60;;;;;;5047593;28;20532;-70
2021/04/06 12:37:26;;;;;;;3.07;2.00;;;9.20;82.30;;;;;;5049893;28;20506;-70
2021/04/06 12:39:53;;;;;;;6.60;2.40;;;8.10;87.00;;;;;;5046484;28;20452;-69
2021/04/06 12:42:19;;;;;;;6.80;2.37;;;7.60;88.80;;;;;;5041787;28;20461;-69
2021/04/06 12:44:47;;;;;;;5.63;2.10;;;7.10;89.10;;;;;;5049543;28;20441;-69
2021/04/06 12:47:13;;;;;;;3.73;2.20;;;7.00;89.20;;;;;;5048201;28;20523;-70
2021/04/06 12:49:39;;;;;;;5.33;1.90;;;6.80;90.00;;;;;;5048420;28;20523;-69
2021/04/06 12:52:06;;;;;;;3.10;2.13;;;6.60;88.00;;;;;;5047381;28;20951;-69
2021/04/06 12:54:32;;;;;;;16.87;2.57;;;6.50;89.80;;;;;;5044694;28;20447;-69
2021/04/06 12:56:59;;;;;;;4.83;2.07;;;6.30;91.10;;;;;;5034700;28;20539;-70
2021/04/06 12:59:25;;;;;;;6.53;2.27;;;6.30;90.60;;;;;;5031502;28;20950;-70
2021/04/06 13:01:53;;;;;;;3.83;1.80;;;6.40;90.00;;;;;;5046547;28;21082;-69
2021/04/06 13:04:19;;;;;;;2.70;1.60;;;6.40;89.80;;;;;;5046101;28;20448;-70